Time;durP1;ratioP1;P1;durP2;ratioP2;P2;SDS_P1;SDS_P2;PMS_P1;PMS_P2;Temp;Humidity;BMP_temperature;BMP_pressure;BME280_temperature;BME280_humidity;BME280_pressure;Samples;Min_cycle;Max_cycle;Signal;HPM_P1;HPM_P2
2024/01/10 00:01:07;;;;;;;;;;;-3.30;94.50;;;;;;5056464;28;19904;-89
2024/01/10 00:03:32;;;;;;;;;;;-3.30;94.50;;;;;;5056592;28;19967;-88
2024/01/10 00:05:58;;;;;;;;;;;-3.20;94.60;;;;;;5074787;28;19904;-88
2024/01/10 00:08:24;;;;;;;;;;;-3.10;94.60;;;;;;5074995;28;20284;-89
2024/01/10 00:10:51;;;;;;;;;;;-3.10;94.60;;;;;;5056499;28;19904;-88
2024/01/10 00:13:17;;;;;;;;;;;-3.10;94.60;;;;;;5057341;28;19908;-89
2024/01/10 00:15:42;;;;;;;;;;;-3.10;94.60;;;;;;5055956;28;20007;-89
2024/01/10 00:18:08;;;;;;;;;;;-3.10;94.60;;;;;;5055835;28;19991;-89
2024/01/10 00:20:33;;;;;;;;;;;-3.20;94.60;;;;;;5056071;28;19911;-89
2024/01/10 00:22:59;;;;;;;;;;;-3.10;94.70;;;;;;5073932;28;19912;-89
2024/01/10 00:25:24;;;;;;;;;;;-3.10;94.70;;;;;;5055154;28;19942;-89
2024/01/10 00:27:49;;;;;;;;;;;-3.10;94.70;;;;;;5056491;28;19905;-89
2024/01/10 00:30:15;;;;;;;;;;;-3.10;94.70;;;;;;5055813;28;19904;-88
2024/01/10 00:32:41;;;;;;;;;;;-3.10;94.70;;;;;;5055966;28;19911;-89
2024/01/10 00:35:06;;;;;;;;;;;-3.10;94.70;;;;;;5056041;28;19904;-89
2024/01/10 00:37:32;;;;;;;;;;;-3.10;94.80;;;;;;5056072;28;19995;-88
2024/01/10 00:39:57;;;;;;;;;;;-3.20;94.70;;;;;;5064143;28;19990;-89
2024/01/10 00:42:23;;;;;;;;;;;-3.10;94.80;;;;;;5055810;28;19950;-89
2024/01/10 00:44:48;;;;;;;;;;;-3.10;94.80;;;;;;5056300;28;20379;-88
2024/01/10 00:47:14;;;;;;;;;;;-3.10;94.80;;;;;;5074043;28;19954;-88
2024/01/10 00:49:39;;;;;;;;;;;-3.20;94.80;;;;;;5055728;28;19944;-88
2024/01/10 00:52:05;;;;;;;;;;;-3.10;94.80;;;;;;5055592;28;20179;-88
2024/01/10 00:54:31;;;;;;;;;;;-3.10;94.80;;;;;;5060419;28;20364;-87
2024/01/10 00:56:56;;;;;;;;;;;-3.10;94.80;;;;;;5065925;28;19905;-88
2024/01/10 00:59:21;;;;;;;;;;;-3.10;94.80;;;;;;5085066;28;20336;-87
2024/01/10 01:01:47;;;;;;;;;;;-3.10;94.80;;;;;;5064489;28;19904;-87
2024/01/10 01:04:12;;;;;;;66.10;34.87;;;-3.10;94.80;;;;;;5081879;28;20035;-86
2024/01/10 01:06:38;;;;;;;56.13;36.67;;;-3.10;94.70;;;;;;5063055;28;20196;-87
2024/01/10 01:09:03;;;;;;;60.77;34.00;;;-3.20;94.70;;;;;;5061784;28;20234;-88
2024/01/10 01:11:29;;;;;;;53.13;36.53;;;-3.20;94.70;;;;;;5057413;28;20196;-88
2024/01/10 01:13:54;;;;;;;54.87;35.80;;;-3.20;94.70;;;;;;5055131;28;20209;-89
2024/01/10 01:16:20;;;;;;;63.63;37.17;;;-3.30;94.70;;;;;;5055446;28;20188;-89
2024/01/10 01:18:45;;;;;;;59.97;38.57;;;-3.20;94.70;;;;;;5073355;28;20189;-88
2024/01/10 01:21:11;;;;;;;48.67;32.10;;;-3.30;94.60;;;;;;5072973;28;20196;-88
2024/01/10 01:23:37;;;;;;;49.97;31.53;;;-3.30;94.60;;;;;;5055230;28;20205;-88
2024/01/10 01:26:04;;;;;;;50.67;34.43;;;-3.30;94.60;;;;;;5073298;28;20269;-88
2024/01/10 01:28:29;;;;;;;51.40;32.73;;;-3.40;94.50;;;;;;5073243;28;20257;-88
2024/01/10 01:30:55;;;;;;;51.40;33.13;;;-3.40;94.50;;;;;;5073295;28;20200;-88
2024/01/10 01:33:21;;;;;;;50.03;33.80;;;-3.40;94.50;;;;;;5073152;28;20584;-89
2024/01/10 01:35:46;;;;;;;;;;;-3.50;94.40;;;;;;5055394;28;20180;-89
2024/01/10 01:38:11;;;;;;;;;;;-3.60;94.30;;;;;;5059053;28;19904;-89
2024/01/10 01:40:37;;;;;;;;;;;-3.70;94.20;;;;;;5058629;28;19911;-89
2024/01/10 01:43:17;;;;;;;;;;;-3.90;94.20;;;;;;5058606;28;20421;-88
2024/01/10 01:45:43;;;;;;;;;;;-3.90;94.20;;;;;;5058717;28;19971;-89
2024/01/10 01:48:08;;;;;;;;;;;-3.90;94.20;;;;;;5059046;28;19909;-89
2024/01/10 01:50:33;;;;;;;;;;;-4.00;94.20;;;;;;5058532;28;19949;-89
2024/01/10 01:52:59;;;;;;;;;;;-4.00;94.20;;;;;;5058641;28;19927;-89
2024/01/10 01:55:24;;;;;;;;;;;-3.90;94.30;;;;;;5058534;28;19915;-89
2024/01/10 01:57:50;;;;;;;;;;;-3.90;94.30;;;;;;5058322;28;19904;-89
2024/01/10 02:00:15;;;;;;;;;;;-3.90;94.30;;;;;;5058251;28;20368;-89
2024/01/10 02:02:42;;;;;;;;;;;-3.80;94.40;;;;;;5058191;28;20288;-89
2024/01/10 02:05:09;;;;;;;;;;;-3.80;94.40;;;;;;5058195;28;19905;-89
2024/01/10 02:07:34;;;;;;;;;;;-3.80;94.40;;;;;;5058262;28;19998;-89
2024/01/10 02:10:00;;;;;;;;;;;-3.80;94.50;;;;;;5058058;28;19944;-90
2024/01/10 02:12:25;;;;;;;;;;;-3.70;94.50;;;;;;5058079;28;19904;-89
2024/01/10 02:14:51;;;;;;;;;;;-3.80;94.50;;;;;;5057896;28;19914;-89
2024/01/10 02:17:17;;;;;;;;;;;-3.70;94.50;;;;;;5058018;28;19904;-89
2024/01/10 02:19:42;;;;;;;;;;;-3.70;94.50;;;;;;5058090;28;19944;-89
2024/01/10 02:22:07;;;;;;;;;;;-3.70;94.50;;;;;;5057875;28;19904;-89
2024/01/10 02:24:33;;;;;;;;;;;-3.70;94.60;;;;;;5058111;28;19912;-89
2024/01/10 02:26:59;;;;;;;;;;;-3.60;94.60;;;;;;5057979;28;19913;-89
2024/01/10 02:29:24;;;;;;;;;;;-3.60;94.60;;;;;;5058113;28;19904;-88
2024/01/10 02:31:50;;;;;;;61.90;26.10;;;-3.60;94.60;;;;;;5057785;28;19904;-89
2024/01/10 02:34:15;;;;;;;59.97;30.87;;;-3.60;94.60;;;;;;5057890;28;20360;-89
2024/01/10 02:36:41;;;;;;;57.10;26.67;;;-3.60;94.60;;;;;;5057556;28;20225;-89
2024/01/10 02:39:06;;;;;;;60.67;36.47;;;-3.60;94.60;;;;;;5057743;28;20179;-89
2024/01/10 02:41:32;;;;;;;66.20;34.90;;;-3.60;94.60;;;;;;5057250;28;20287;-89
2024/01/10 02:43:58;;;;;;;64.00;34.83;;;-3.60;94.50;;;;;;5057059;28;20207;-89
2024/01/10 02:46:27;;;;;;;74.27;36.00;;;-3.60;94.60;;;;;;5057021;28;20251;-89
2024/01/10 02:48:54;;;;;;;74.83;36.10;;;-3.70;94.50;;;;;;5056241;28;20647;-89
2024/01/10 02:51:19;;;;;;;;;;;-3.70;94.50;;;;;;5057364;28;20206;-89
2024/01/10 02:53:44;;;;;;;;;;;-3.70;94.50;;;;;;5057221;28;19916;-89
2024/01/10 02:56:10;;;;;;;;;;;-3.70;94.50;;;;;;5057240;28;19905;-90
2024/01/10 02:58:35;;;;;;;;;;;-3.70;94.60;;;;;;5075012;28;20432;-89
2024/01/10 03:01:01;;;;;;;;;;;-3.70;94.50;;;;;;5057117;28;19904;-90
2024/01/10 03:03:26;;;;;;;;;;;-3.70;94.50;;;;;;5057563;28;19949;-89
2024/01/10 03:05:52;;;;;;;;;;;-3.80;94.50;;;;;;5075059;28;19950;-89
2024/01/10 03:08:17;;;;;;;;;;;-3.80;94.50;;;;;;5057018;28;19957;-89
2024/01/10 03:10:43;;;;;;;;;;;-3.80;94.50;;;;;;5056837;28;20329;-89
2024/01/10 03:13:08;;;;;;;;;;;-3.80;94.50;;;;;;5056756;28;19985;-89
2024/01/10 03:15:33;;;;;;;;;;;-3.80;94.50;;;;;;5057035;28;19904;-89
2024/01/10 03:17:59;;;;;;;;;;;-3.80;94.50;;;;;;5056904;28;19908;-89
2024/01/10 03:20:25;;;;;;;65.20;32.30;;;-3.80;94.50;;;;;;5056317;28;20193;-89
2024/01/10 03:22:50;;;;;;;65.57;26.57;;;-3.80;94.50;;;;;;5056327;28;20194;-89
2024/01/10 03:25:16;;;;;;;70.00;35.53;;;-3.70;94.60;;;;;;5074191;28;20237;-89
2024/01/10 03:27:41;;;;;;;62.30;31.60;;;-3.70;94.60;;;;;;5074203;28;20163;-88
2024/01/10 03:30:07;;;;;;;84.30;33.80;;;-3.70;94.60;;;;;;5056168;28;20202;-89
2024/01/10 03:32:33;;;;;;;63.67;33.30;;;-3.70;94.60;;;;;;5073829;28;20225;-88
2024/01/10 03:34:58;;;;;;;61.57;34.67;;;-3.60;94.60;;;;;;5055923;28;20200;-89
2024/01/10 03:37:24;;;;;;;68.30;36.27;;;-3.70;94.50;;;;;;5055819;28;20508;-89
2024/01/10 03:39:49;;;;;;;73.93;39.23;;;-3.60;94.60;;;;;;5055967;28;20195;-89
2024/01/10 03:42:15;;;;;;;68.20;35.87;;;-3.50;94.60;;;;;;5055789;28;20175;-89
2024/01/10 03:44:41;;;;;;;63.97;36.13;;;-3.50;94.60;;;;;;5055911;28;20592;-89
2024/01/10 03:47:06;;;;;;;83.63;40.60;;;-3.50;94.60;;;;;;5056023;28;20553;-88
2024/01/10 03:49:32;;;;;;;65.50;34.77;;;-3.50;94.50;;;;;;5055770;28;20182;-88
2024/01/10 03:51:57;;;;;;;71.50;36.83;;;-3.60;94.50;;;;;;5055913;28;20181;-89
2024/01/10 03:54:23;;;;;;;68.30;33.90;;;-3.50;94.50;;;;;;5055765;28;20192;-88
2024/01/10 03:56:48;;;;;;;59.47;34.57;;;-3.50;94.50;;;;;;5055856;28;20214;-90
2024/01/10 03:59:14;;;;;;;58.67;36.13;;;-3.50;94.50;;;;;;5073151;28;20183;-88
2024/01/10 04:01:39;;;;;;;46.27;24.30;;;-3.60;94.50;;;;;;5055324;28;20182;-89
2024/01/10 04:04:05;;;;;;;;;;;-3.60;94.50;;;;;;5074109;28;20131;-89
2024/01/10 04:06:30;;;;;;;;;;;-3.50;94.50;;;;;;5056360;28;19904;-88
2024/01/10 04:08:56;;;;;;;;;;;-3.50;94.50;;;;;;5055858;28;19905;-89
2024/01/10 04:11:21;;;;;;;;;;;-3.50;94.50;;;;;;5057191;28;19904;-89
2024/01/10 04:13:47;;;;;;;;;;;-3.50;94.40;;;;;;5056048;28;19908;-88
2024/01/10 04:16:13;;;;;;;;;;;-3.60;94.30;;;;;;5055932;28;19904;-89
2024/01/10 04:18:38;;;;;;;;;;;-3.60;94.30;;;;;;5055962;28;19908;-89
2024/01/10 04:21:04;;;;;;;;;;;-3.60;94.30;;;;;;5074045;28;19911;-89
2024/01/10 04:23:30;;;;;;;;;;;-3.60;94.40;;;;;;5055913;28;19905;-89
2024/01/10 04:25:56;;;;;;;;;;;-3.60;94.30;;;;;;5055613;28;19913;-90
2024/01/10 04:28:22;;;;;;;;;;;-3.50;94.40;;;;;;5073630;28;19912;-89
2024/01/10 04:30:47;;;;;;;;;;;-3.50;94.40;;;;;;5055724;28;19987;-88
2024/01/10 04:33:12;;;;;;;;;;;-3.50;94.40;;;;;;5055566;28;19919;-88
2024/01/10 04:35:38;;;;;;;;;;;-3.50;94.40;;;;;;5073972;28;19904;-89
2024/01/10 04:38:03;;;;;;;;;;;-3.50;94.40;;;;;;5055757;28;20341;-89
2024/01/10 04:40:42;;;;;;;;;;;-3.50;94.40;;;;;;5060828;28;19926;-94
2024/01/10 04:43:07;;;;;;;;;;;-3.50;94.30;;;;;;5058655;28;19909;-88
2024/01/10 04:45:33;;;;;;;;;;;-3.50;94.40;;;;;;5073422;28;19904;-89
2024/01/10 04:47:58;;;;;;;;;;;-3.40;94.40;;;;;;5055525;28;20364;-88
2024/01/10 04:50:24;;;;;;;;;;;-3.40;94.40;;;;;;5055420;28;19999;-89
2024/01/10 04:52:49;;;;;;;;;;;-3.40;94.40;;;;;;5055597;28;19952;-88
2024/01/10 04:55:15;;;;;;;;;;;-3.40;94.40;;;;;;5055299;28;19916;-89
2024/01/10 04:57:40;;;;;;;;;;;-3.40;94.30;;;;;;5055608;28;19932;-89
2024/01/10 05:00:06;;;;;;;;;;;-3.30;94.30;;;;;;5055297;28;19958;-88
2024/01/10 05:02:31;;;;;;;;;;;-3.30;94.30;;;;;;5055516;28;19948;-89
2024/01/10 05:04:58;;;;;;;;;;;-3.40;94.30;;;;;;5055617;28;20389;-89
2024/01/10 05:07:23;;;;;;;;;;;-3.40;94.30;;;;;;5073596;28;19925;-88
2024/01/10 05:09:48;;;;;;;;;;;-3.40;94.30;;;;;;5073147;28;19904;-89
2024/01/10 05:12:14;;;;;;;;;;;-3.30;94.30;;;;;;5057816;28;19911;-88
2024/01/10 05:14:39;;;;;;;;;;;-3.40;94.20;;;;;;5059016;28;19908;-89
2024/01/10 05:17:05;;;;;;;;;;;-3.40;94.20;;;;;;5059032;28;20398;-88
2024/01/10 05:19:30;;;;;;;;;;;-3.30;94.20;;;;;;5058840;28;19904;-89
2024/01/10 05:21:57;;;;;;;;;;;-3.30;94.20;;;;;;5076894;28;19912;-88
2024/01/10 05:24:22;;;;;;;;;;;-3.30;94.10;;;;;;5059069;28;20364;-88
2024/01/10 05:26:51;;;;;;;;;;;-3.40;94.10;;;;;;5076739;28;19966;-89
2024/01/10 05:29:18;;;;;;;;;;;-3.40;94.00;;;;;;5059375;28;19948;-88
2024/01/10 05:31:43;;;;;;;;;;;-3.50;94.00;;;;;;5059029;28;20344;-89
2024/01/10 05:34:08;;;;;;;;;;;-3.50;93.90;;;;;;5058910;28;19958;-90
2024/01/10 05:36:34;;;;;;;;;;;-3.50;93.80;;;;;;5059622;28;19904;-89
2024/01/10 05:38:59;;;;;;;;;;;-3.60;93.70;;;;;;5076704;28;20007;-88
2024/01/10 05:41:25;;;;;;;;;;;-3.60;93.80;;;;;;5058799;28;19908;-88
2024/01/10 05:43:50;;;;;;;;;;;-3.60;93.70;;;;;;5058713;28;19904;-89
2024/01/10 05:46:16;;;;;;;;;;;-3.70;93.70;;;;;;5058612;28;19905;-88
2024/01/10 05:48:41;;;;;;;;;;;-3.60;93.70;;;;;;5058705;28;19935;-89
2024/01/10 05:51:07;;;;;;;;;;;-3.70;93.70;;;;;;5076364;28;20372;-88
2024/01/10 05:53:32;;;;;;;;;;;-3.70;93.70;;;;;;5076648;28;20376;-89
2024/01/10 05:56:05;;;;;;;;;;;-3.70;93.60;;;;;;5065777;28;19904;-89
2024/01/10 05:58:31;;;;;;;;;;;-3.80;93.60;;;;;;5059187;28;19926;-88
2024/01/10 06:00:56;;;;;;;;;;;-3.90;93.50;;;;;;5076155;28;20376;-88
2024/01/10 06:03:21;;;;;;;;;;;-3.90;93.50;;;;;;5058689;28;20007;-89
2024/01/10 06:05:47;;;;;;;;;;;-4.00;93.50;;;;;;5058173;28;20404;-88
2024/01/10 06:08:14;;;;;;;;;;;-4.10;93.50;;;;;;5058321;28;19908;-88
2024/01/10 06:10:39;;;;;;;;;;;-4.10;93.50;;;;;;5058157;28;19904;-89
2024/01/10 06:13:05;;;;;;;;;;;-4.00;93.60;;;;;;5057992;28;19915;-88
2024/01/10 06:15:30;;;;;;;;;;;-4.10;93.50;;;;;;5058012;28;19911;-88
2024/01/10 06:17:56;;;;;;;;;;;-4.10;93.40;;;;;;5057951;28;20299;-88
2024/01/10 06:20:21;;;;;;;;;;;-4.20;93.40;;;;;;5058167;28;19927;-89
2024/01/10 06:22:46;;;;;;;;;;;-4.10;93.50;;;;;;5056762;28;19911;-88
2024/01/10 06:25:12;;;;;;;;;;;-4.10;93.50;;;;;;5057838;28;19919;-90
2024/01/10 06:27:39;;;;;;;;;;;-4.10;93.50;;;;;;5075924;28;19927;-89
2024/01/10 06:30:07;;;;;;;;;;;-4.10;93.50;;;;;;5057713;28;20011;-90
2024/01/10 06:32:32;;;;;;;;;;;-4.20;93.50;;;;;;5057753;28;19999;-87
2024/01/10 06:35:00;;;;;;;;;;;-4.20;93.40;;;;;;5068792;28;19947;-87
2024/01/10 06:37:25;;;;;;;;;;;-4.20;93.50;;;;;;5057756;28;19954;-88
2024/01/10 06:39:51;;;;;;;;;;;-4.20;93.50;;;;;;5075461;28;19904;-88
2024/01/10 06:42:16;;;;;;;;;;;-4.20;93.50;;;;;;5057479;28;19930;-92
2024/01/10 06:44:42;;;;;;;;;;;-4.20;93.40;;;;;;5057924;28;19940;-89
2024/01/10 06:47:07;;;;;;;;;;;-4.20;93.40;;;;;;5075355;28;19911;-90
2024/01/10 06:49:33;;;;;;;;;;;-4.20;93.40;;;;;;5057819;28;19904;-89
2024/01/10 06:52:00;;;;;;;;;;;-4.30;93.40;;;;;;5076579;28;19904;-88
2024/01/10 06:54:25;;;;;;;;;;;-4.30;93.30;;;;;;5075710;28;19924;-88
2024/01/10 06:56:51;;;;;;;;;;;-4.40;93.30;;;;;;5057745;28;20392;-89
2024/01/10 06:59:16;;;;;;;;;;;-4.40;93.30;;;;;;5075398;28;20368;-88
2024/01/10 07:01:42;;;;;;;;;;;-4.40;93.30;;;;;;5057582;28;20327;-89
2024/01/10 07:04:07;;;;;;;;;;;-4.40;93.30;;;;;;5075031;28;19928;-89
2024/01/10 07:06:33;;;;;;;;;;;-4.40;93.30;;;;;;5057645;28;19904;-89
2024/01/10 07:08:58;;;;;;;;;;;-4.40;93.30;;;;;;5057844;28;20356;-89
2024/01/10 07:11:24;;;;;;;;;;;-4.40;93.30;;;;;;5057042;28;20376;-89
2024/01/10 07:13:49;;;;;;;;;;;-4.40;93.20;;;;;;5057007;28;20296;-89
2024/01/10 07:16:15;;;;;;;;;;;-4.50;93.20;;;;;;5056991;28;19908;-88
2024/01/10 07:18:41;;;;;;;;;;;-4.50;93.20;;;;;;5057249;28;19911;-89
2024/01/10 07:21:09;;;;;;;;;;;-4.40;93.20;;;;;;5074787;28;19905;-89
2024/01/10 07:23:35;;;;;;;;;;;-4.40;93.20;;;;;;5056889;28;19911;-88
2024/01/10 07:26:00;;;;;;;;;;;-4.30;93.30;;;;;;5056802;28;19916;-89
2024/01/10 07:28:26;;;;;;;;;;;-4.30;93.30;;;;;;5056883;28;19904;-88
2024/01/10 07:30:52;;;;;;;;;;;-4.20;93.40;;;;;;5074741;28;19904;-89
2024/01/10 07:33:18;;;;;;;;;;;-4.20;93.40;;;;;;5056805;28;19912;-89
2024/01/10 07:35:43;;;;;;;;;;;-4.20;93.40;;;;;;5057206;28;19958;-89
2024/01/10 07:38:09;;;;;;;;;;;-4.10;93.50;;;;;;5056936;28;20364;-89
2024/01/10 07:40:35;;;;;;;;;;;-4.10;93.50;;;;;;5056794;28;19939;-89
2024/01/10 07:43:00;;;;;;;;;;;-4.10;93.50;;;;;;5056368;28;19915;-89
2024/01/10 07:45:26;;;;;;;;;;;-4.10;93.50;;;;;;5056456;28;19998;-89
2024/01/10 07:47:51;;;;;;;;;;;-4.00;93.50;;;;;;5056339;28;19904;-89
2024/01/10 07:50:17;;;;;;;;;;;-3.90;93.60;;;;;;5056194;28;19904;-89
2024/01/10 07:52:43;;;;;;;;;;;-3.90;93.60;;;;;;5056310;28;19996;-89
2024/01/10 07:55:09;;;;;;;;;;;-3.80;93.60;;;;;;5074014;28;19912;-90
2024/01/10 07:57:36;;;;;;;;;;;-3.80;93.60;;;;;;5073948;28;19922;-89
2024/01/10 08:00:03;;;;;;;;;;;-3.80;93.60;;;;;;5056055;28;19904;-90
2024/01/10 08:02:29;;;;;;;;;;;-3.70;93.70;;;;;;5055950;28;19904;-90
2024/01/10 08:04:54;;;;;;;;;;;-3.60;93.70;;;;;;5056183;28;19915;-90
2024/01/10 08:07:20;;;;;;;;;;;-3.60;93.70;;;;;;5056131;28;19905;-90
2024/01/10 08:09:45;;;;;;;;;;;-3.60;93.80;;;;;;5055862;28;19940;-90
2024/01/10 08:12:11;;;;;;;;;;;-3.60;93.60;;;;;;5055831;28;19911;-90
2024/01/10 08:14:37;;;;;;;;;;;-3.60;93.60;;;;;;5055943;28;19969;-91
2024/01/10 08:17:03;;;;;;;;;;;-3.60;93.70;;;;;;5056383;28;19904;-90
2024/01/10 08:19:28;;;;;;;;;;;-3.60;93.60;;;;;;5055775;28;20323;-90
2024/01/10 08:21:54;;;;;;;;;;;-3.60;93.60;;;;;;5055675;28;19905;-90
2024/01/10 08:24:20;;;;;;;;;;;-3.50;93.80;;;;;;5055773;28;20376;-90
2024/01/10 08:26:51;;;;;;;;;;;-3.50;93.70;;;;;;5056022;28;19916;-90
2024/01/10 08:29:18;;;;;;;;;;;-3.40;93.80;;;;;;5055637;28;19911;-90
2024/01/10 08:31:44;;;;;;;;;;;-3.50;93.70;;;;;;5055638;28;19905;-90
2024/01/10 08:34:09;;;;;;;;;;;-3.50;93.70;;;;;;5055597;28;19909;-90
2024/01/10 08:36:35;;;;;;;;;;;-3.40;93.80;;;;;;5073545;28;19908;-90
2024/01/10 08:39:00;;;;;;;;;;;-3.30;93.80;;;;;;5055668;28;19908;-90
2024/01/10 08:41:25;;;;;;;;;;;-3.30;93.80;;;;;;5055647;28;20364;-90
2024/01/10 08:43:51;;;;;;;;;;;-3.20;93.80;;;;;;5073559;28;19911;-90
2024/01/10 08:46:17;;;;;;;;;;;-3.20;93.90;;;;;;5056692;28;20007;-90
2024/01/10 08:48:43;;;;;;;;;;;-3.10;93.90;;;;;;5077595;28;19911;-90
2024/01/10 08:51:09;;;;;;;;;;;-3.10;93.90;;;;;;5059587;28;20365;-90
2024/01/10 08:53:35;;;;;;;;;;;-3.20;93.80;;;;;;5059498;28;19999;-90
2024/01/10 08:56:00;;;;;;;;;;;-3.20;93.80;;;;;;5059651;28;20395;-90
2024/01/10 08:58:26;;;;;;;;;;;-3.10;93.80;;;;;;5059464;28;19911;-90
2024/01/10 09:00:51;;;;;;;;;;;-3.00;93.80;;;;;;5077186;28;20357;-90
2024/01/10 09:03:17;;;;;;;;;;;-2.90;93.90;;;;;;5059426;28;19908;-89
2024/01/10 09:05:42;;;;;;;;;;;-2.80;93.90;;;;;;5059614;28;19911;-90
2024/01/10 09:08:08;;;;;;;;;;;-2.80;93.90;;;;;;5059239;28;19905;-89
2024/01/10 09:10:33;;;;;;;;;;;-2.70;93.80;;;;;;5077022;28;19970;-89
2024/01/10 09:12:59;;;;;;;;;;;-2.60;93.70;;;;;;5059176;28;19970;-89
2024/01/10 09:15:24;;;;;;;;;;;-2.60;93.60;;;;;;5076936;28;19958;-89
2024/01/10 09:17:52;;;;;;;;;;;-2.60;93.50;;;;;;5059224;28;19908;-90
2024/01/10 09:20:17;;;;;;;;;;;-2.60;93.40;;;;;;5059055;28;19911;-89
2024/01/10 09:22:42;;;;;;;;;;;-2.60;93.20;;;;;;5058923;28;20284;-89
2024/01/10 09:25:08;;;;;;;;;;;-2.70;92.90;;;;;;5058724;28;19912;-90
2024/01/10 09:27:34;;;;;;;;;;;-2.70;92.80;;;;;;5058956;28;20003;-89
2024/01/10 09:30:01;;;;;;;;;;;-2.80;92.70;;;;;;5058826;28;20367;-89
2024/01/10 09:32:27;;;;;;;;;;;-2.90;92.70;;;;;;5058911;28;20429;-89
2024/01/10 09:34:53;;;;;;;;;;;-2.80;92.70;;;;;;5059239;28;19912;-91
2024/01/10 09:37:19;;;;;;;;;;;-2.70;92.70;;;;;;5074350;28;19912;-87
2024/01/10 09:39:44;;;;;;;;;;;-2.70;92.70;;;;;;5082967;28;20292;-87
2024/01/10 09:42:10;;;;;;;;;;;-2.70;92.50;;;;;;5067117;28;19912;-89
2024/01/10 09:44:35;;;;;;;;;;;-2.80;92.40;;;;;;5077843;28;20526;-89
2024/01/10 09:47:01;;;;;;;;;;;-2.90;92.40;;;;;;5076656;28;19904;-89
2024/01/10 09:49:27;;;;;;;;;;;-2.90;92.30;;;;;;5060435;28;19911;-88
2024/01/10 09:52:01;;;;;;;;;;;-2.80;92.40;;;;;;5079305;28;19998;-87
2024/01/10 09:54:29;;;;;;;;;;;-2.60;92.50;;;;;;5081017;28;20378;-88
2024/01/10 09:56:55;;;;;;;;;;;-2.50;92.50;;;;;;5060184;28;19940;-89
2024/01/10 09:59:21;;;;;;;;;;;-2.50;92.40;;;;;;5079178;28;19911;-88
2024/01/10 10:01:46;;;;;;;;;;;-2.40;92.20;;;;;;5078077;28;19905;-89
2024/01/10 10:04:12;;;;;;;;;;;-2.50;92.10;;;;;;5059101;28;19904;-89
2024/01/10 10:06:38;;;;;;;;;;;-2.40;92.00;;;;;;5058674;28;20016;-89
2024/01/10 10:09:04;;;;;;;;;;;-2.50;91.90;;;;;;5058802;28;20010;-89
2024/01/10 10:11:29;;;;;;;;;;;-2.50;91.80;;;;;;5058960;28;19911;-89
2024/01/10 10:13:55;;;;;;;;;;;-2.50;91.70;;;;;;5081665;28;20352;-88
2024/01/10 10:16:25;;;;;;;;;;;-2.50;91.70;;;;;;5079700;28;19904;-88
2024/01/10 10:18:52;;;;;;;;;;;-2.50;91.60;;;;;;5077157;28;19904;-90
2024/01/10 10:21:18;;;;;;;;;;;-2.40;91.70;;;;;;5059075;28;19908;-90
2024/01/10 10:23:57;;;;;;;;;;;-2.40;91.60;;;;;;5059478;28;20275;-89
2024/01/10 10:26:23;;;;;;;;;;;-2.50;91.60;;;;;;5076903;28;20403;-90
2024/01/10 10:28:49;;;;;;;;;;;-2.50;91.60;;;;;;5059371;28;20383;-90
2024/01/10 10:31:16;;;;;;;;;;;-2.50;91.70;;;;;;5058752;28;19908;-90
2024/01/10 10:33:42;;;;;;;;;;;-2.50;91.70;;;;;;5058576;28;19909;-88
2024/01/10 10:36:08;;;;;;;;;;;-2.50;91.70;;;;;;5077300;28;19958;-90
2024/01/10 10:38:33;;;;;;;;;;;-2.40;91.80;;;;;;5057916;28;19904;-89
2024/01/10 10:40:59;;;;;;;;;;;-2.50;91.70;;;;;;5058421;28;19904;-90
2024/01/10 10:43:25;;;;;;;;;;;-2.40;91.80;;;;;;5058913;28;20396;-89
2024/01/10 10:45:51;;;;;;;;;;;-2.40;91.70;;;;;;5058409;28;19948;-90
2024/01/10 10:48:20;;;;;;;;;;;-2.30;91.70;;;;;;5058814;28;19904;-89
2024/01/10 10:51:07;;;;;;;24.20;20.67;;;-2.30;91.70;;;;;;5057950;28;20275;-90
2024/01/10 10:53:33;;;;;;;;;;;-2.40;91.60;;;;;;5059337;28;20712;-90
2024/01/10 10:56:00;;;;;;;;;;;-2.40;91.60;;;;;;5057902;28;19954;-90
2024/01/10 10:58:25;;;;;;;;;;;-2.50;91.60;;;;;;5059426;28;20273;-90
2024/01/10 11:00:51;;;;;;;;;;;-2.40;91.60;;;;;;5057922;28;19905;-90
2024/01/10 11:03:18;;;;;;;;;;;-2.50;91.50;;;;;;5057758;28;19965;-89
2024/01/10 11:05:44;;;;;;;;;;;-2.50;91.60;;;;;;5057649;28;19911;-89
2024/01/10 11:08:12;;;;;;;;;;;-2.40;91.70;;;;;;5058402;28;19905;-90
2024/01/10 11:10:39;;;;;;;;;;;-2.40;91.80;;;;;;5057378;28;19905;-89
2024/01/10 11:13:08;;;;;;;;;;;-2.40;91.90;;;;;;5057489;28;19966;-90
2024/01/10 11:15:47;;;;;;;;;;;-2.50;91.70;;;;;;5060753;28;19908;-88
2024/01/10 11:18:22;;;;;;;;;;;-2.50;91.70;;;;;;5058840;28;19905;-88
2024/01/10 11:20:53;;;;;;;;;;;-2.50;91.70;;;;;;5057370;28;19939;-90
2024/01/10 11:23:28;;;;;;;;;;;-2.40;91.80;;;;;;5075029;28;19912;-89
2024/01/10 11:25:53;;;;;;;;;;;-2.40;91.80;;;;;;5057322;28;20368;-89
2024/01/10 11:28:19;;;;;;;;;;;-2.40;91.90;;;;;;5057474;28;19911;-89
2024/01/10 11:30:49;;;;;;;;;;;-2.40;91.90;;;;;;5074932;28;19904;-89
2024/01/10 11:33:19;;;;;;;;;;;-2.40;91.90;;;;;;5057015;28;20502;-89
2024/01/10 11:36:03;;;;;;;;;;;-2.40;91.90;;;;;;5075699;28;19979;-90
2024/01/10 11:38:29;;;;;;;;;;;-2.50;91.80;;;;;;5074840;28;19912;-89
2024/01/10 11:40:56;;;;;;;;;;;-2.50;91.80;;;;;;5056812;28;19908;-89
2024/01/10 11:43:22;;;;;;;;;;;-2.50;91.80;;;;;;5074989;28;19911;-89
2024/01/10 11:46:06;;;;;;;;;;;-2.40;91.90;;;;;;5057130;28;19951;-89
2024/01/10 11:48:32;;;;;;;;;;;-2.30;92.00;;;;;;5056915;28;19904;-90
2024/01/10 11:50:57;;;;;;;;;;;-2.30;91.90;;;;;;5074568;28;19904;-89
2024/01/10 11:53:50;;;;;;;;;;;-2.30;91.90;;;;;;5057841;28;19904;-91
2024/01/10 11:56:16;;;;;;;;;;;-2.30;91.90;;;;;;5056659;28;19908;-90
2024/01/10 11:59:01;;;;;;;;;;;-2.20;91.90;;;;;;5056460;28;19968;-90
2024/01/10 12:01:36;;;;;;;;;;;-2.30;91.70;;;;;;5076073;28;19993;-91
2024/01/10 12:04:02;;;;;;;;;;;-2.30;91.70;;;;;;5057296;28;19952;-90
2024/01/10 12:06:27;;;;;;;;;;;-2.30;91.70;;;;;;5056428;28;19944;-91
2024/01/10 12:08:53;;;;;;;;;;;-2.30;91.70;;;;;;5057798;28;19911;-91
2024/01/10 12:11:18;;;;;;;;;;;-2.30;91.70;;;;;;5058491;28;19958;-90
2024/01/10 12:13:44;;;;;;;;;;;-2.20;91.70;;;;;;5057097;28;19915;-93
2024/01/10 12:16:11;;;;;;;;;;;-2.20;91.70;;;;;;5056960;28;19911;-89
2024/01/10 12:18:37;;;;;;;;;;;-2.10;91.60;;;;;;5056925;28;19911;-89
2024/01/10 12:21:02;;;;;;;;;;;-2.20;91.60;;;;;;5055383;28;19905;-89
2024/01/10 12:23:31;;;;;;;;;;;-2.20;91.60;;;;;;5056105;28;19994;-90
2024/01/10 12:25:57;;;;;;;;;;;-2.30;91.60;;;;;;5055923;28;19916;-90
2024/01/10 12:28:23;;;;;;;;;;;-2.40;91.60;;;;;;5074265;28;19904;-89
2024/01/10 12:30:48;;;;;;;;;;;-2.40;91.70;;;;;;5056263;28;20434;-89
2024/01/10 12:33:13;;;;;;;;;;;-2.40;91.80;;;;;;5073962;28;19980;-89
2024/01/10 12:35:42;;;;;;;;;;;-2.40;91.90;;;;;;5056500;28;20015;-88
2024/01/10 12:38:10;;;;;;;;;;;-2.30;91.90;;;;;;5074618;28;20383;-89
2024/01/10 12:40:36;;;;;;;;;;;-2.40;91.80;;;;;;5056537;28;19915;-89
2024/01/10 12:43:05;;;;;;;;;;;-2.30;91.80;;;;;;5073946;28;20369;-90
2024/01/10 12:45:30;;;;;;;;;;;-2.40;91.70;;;;;;5073935;28;19912;-89
2024/01/10 12:47:57;;;;;;;;;;;-2.40;91.70;;;;;;5055754;28;19908;-89
2024/01/10 12:50:24;;;;;;;;;;;-2.40;91.60;;;;;;5055652;28;19953;-89
2024/01/10 12:52:50;;;;;;;;;;;-2.30;91.50;;;;;;5055645;28;19912;-90
2024/01/10 12:55:17;;;;;;;;;;;-2.30;91.50;;;;;;5055672;28;20300;-89
2024/01/10 12:57:43;;;;;;;;;;;-2.30;91.50;;;;;;5073653;28;19915;-89
2024/01/10 13:00:09;;;;;;;;;;;-2.40;91.40;;;;;;5055442;28;19905;-89
2024/01/10 13:02:37;;;;;;;;;;;-2.40;91.30;;;;;;5055824;28;19911;-89
2024/01/10 13:05:09;;;;;;;;;;;-2.40;91.30;;;;;;5056726;28;20379;-89
2024/01/10 13:07:37;;;;;;;;;;;-2.50;91.20;;;;;;5055772;28;19905;-89
2024/01/10 13:10:03;;;;;;;;;;;-2.60;91.20;;;;;;5056117;28;20061;-90
2024/01/10 13:12:28;;;;;;;;;;;-2.50;91.30;;;;;;5055929;28;19905;-89
2024/01/10 13:14:54;;;;;;;;;;;-2.60;91.20;;;;;;5055906;28;20455;-90
2024/01/10 13:17:20;;;;;;;;;;;-2.50;91.30;;;;;;5056002;28;19905;-90
2024/01/10 13:19:48;;;;;;;;;;;-2.50;91.30;;;;;;5055936;28;19938;-89
2024/01/10 13:22:19;;;;;;;;;;;-2.40;91.40;;;;;;5056102;28;19905;-88
2024/01/10 13:24:45;;;;;;;;;;;-2.60;91.20;;;;;;5060274;28;19905;-87
2024/01/10 13:27:10;;;;;;;;;;;-2.60;91.20;;;;;;5056265;28;20364;-91
2024/01/10 13:29:36;;;;;;;;;;;-2.60;91.10;;;;;;5073208;28;19991;-89
2024/01/10 13:32:03;;;;;;;;;;;-2.60;91.20;;;;;;5056059;28;19950;-90
2024/01/10 13:34:28;;;;;;;;;;;-2.60;91.20;;;;;;5059319;28;19908;-89
2024/01/10 13:36:54;;;;;;;;;;;-2.60;91.40;;;;;;5059081;28;19904;-90
2024/01/10 13:39:19;;;;;;;;;;;-2.60;91.40;;;;;;5059102;28;20283;-89
2024/01/10 13:41:45;;;;;;;;;;;-2.60;91.30;;;;;;5077107;28;20295;-89
2024/01/10 13:44:10;;;;;;;;;;;-2.70;91.20;;;;;;5060214;28;19926;-89
2024/01/10 13:46:36;;;;;;;;;;;-2.70;91.20;;;;;;5060015;28;19953;-90
2024/01/10 13:49:01;;;;;;;;;;;-2.70;91.20;;;;;;5060265;28;19905;-89
2024/01/10 13:51:26;;;;;;;;;;;-2.70;91.20;;;;;;5060189;28;19908;-89
2024/01/10 13:53:52;;;;;;;;;;;-2.70;91.20;;;;;;5060918;28;20047;-88
2024/01/10 13:56:17;;;;;;;;;;;-2.70;91.10;;;;;;5066845;28;19944;-88